createdAt,value
2023-08-12T00:04:58.546Z,79.45
2023-08-12T00:10:04.585Z,79.68
2023-08-12T00:15:09.571Z,79.63
2023-08-12T00:20:13.705Z,79.53
2023-08-12T00:25:17.122Z,80.05
2023-08-12T00:30:20.110Z,79.67
2023-08-12T00:35:23.191Z,80.21
2023-08-12T00:40:27.737Z,80.84
2023-08-12T00:45:30.719Z,81.00
2023-08-12T00:50:33.579Z,80.97
2023-08-12T00:55:36.504Z,80.69
2023-08-12T01:00:39.468Z,80.99
2023-08-12T01:05:42.926Z,81.59
2023-08-12T01:10:52.735Z,81.39
2023-08-12T01:15:57.153Z,81.56
2023-08-12T01:21:00.322Z,81.43
2023-08-12T01:26:03.286Z,81.97
2023-08-12T01:31:44.498Z,82.22
2023-08-12T01:36:50.374Z,82.75
2023-08-12T01:41:53.342Z,83.02
2023-08-12T01:46:56.294Z,82.51
2023-08-12T01:51:59.201Z,82.46
2023-08-12T01:57:06.801Z,82.82
2023-08-12T02:02:09.776Z,83.32
2023-08-12T02:07:13.075Z,83.53
2023-08-12T02:12:16.497Z,83.70
2023-08-12T02:17:19.338Z,83.60
2023-08-12T02:22:23.563Z,83.66
2023-08-12T02:27:26.443Z,83.48
2023-08-12T02:32:29.438Z,83.68
2023-08-12T02:37:32.281Z,84.05
2023-08-12T02:42:35.193Z,84.46
2023-08-12T02:47:38.363Z,84.34
2023-08-12T02:52:41.242Z,84.52
2023-08-12T02:57:44.218Z,85.18
2023-08-12T03:02:47.289Z,84.93
2023-08-12T03:07:52.822Z,85.14
2023-08-12T03:12:55.951Z,85.36
2023-08-12T03:17:58.884Z,85.67
2023-08-12T03:23:02.041Z,85.97
2023-08-12T03:28:05.250Z,86.34
2023-08-12T03:33:08.183Z,86.44
2023-08-12T03:38:12.096Z,86.25
2023-08-12T03:43:15.557Z,86.67
2023-08-12T03:48:18.460Z,86.61
2023-08-12T03:53:21.389Z,86.80
2023-08-12T03:58:24.271Z,86.94
2023-08-12T04:03:27.399Z,86.95
2023-08-12T04:08:30.524Z,87.18
2023-08-12T04:13:33.537Z,87.35
2023-08-12T04:18:36.592Z,87.61
2023-08-12T04:23:39.662Z,87.66
2023-08-12T04:28:42.520Z,88.16
2023-08-12T04:33:45.369Z,88.31
2023-08-12T04:38:48.382Z,88.67
2023-08-12T04:43:51.589Z,88.68
2023-08-12T04:48:54.436Z,88.96
2023-08-12T04:53:57.442Z,88.84
2023-08-12T04:59:00.256Z,88.63
2023-08-12T05:04:03.308Z,88.85
2023-08-12T05:09:06.974Z,88.71
2023-08-12T05:14:10.346Z,88.38
2023-08-12T05:19:13.297Z,88.05
2023-08-12T05:24:16.465Z,87.36
2023-08-12T05:29:19.324Z,86.44
2023-08-12T05:34:22.183Z,85.52
2023-08-12T05:39:25.239Z,85.21
2023-08-12T05:44:28.152Z,84.49
2023-08-12T05:49:30.976Z,84.27
2023-08-12T05:54:33.925Z,83.97
2023-08-12T05:59:36.871Z,83.65
2023-08-12T06:04:39.792Z,83.00
2023-08-12T06:09:42.734Z,82.43
2023-08-12T06:14:45.630Z,81.73
2023-08-12T06:19:48.632Z,81.42
2023-08-12T06:24:51.696Z,80.85
2023-08-12T06:29:54.608Z,80.12
2023-08-12T06:34:58.252Z,79.74
2023-08-12T06:40:01.297Z,78.94
2023-08-12T06:45:05.323Z,77.96
2023-08-12T06:50:09.453Z,76.80
2023-08-12T06:55:12.769Z,76.22
2023-08-12T07:00:16.346Z,75.28
2023-08-12T07:05:20.014Z,75.25
2023-08-12T07:10:24.217Z,73.77
2023-08-12T07:15:30.673Z,72.57
2023-08-12T07:20:34.248Z,71.27
2023-08-12T07:25:37.608Z,69.49
2023-08-12T07:30:40.625Z,68.36
2023-08-12T07:35:43.846Z,66.04
2023-08-12T07:40:51.038Z,63.31
2023-08-12T07:46:07.716Z,58.99
2023-08-12T07:51:13.894Z,55.41
2023-08-12T07:56:16.994Z,53.22
2023-08-12T08:01:21.766Z,51.82
2023-08-12T08:06:30.121Z,51.46
2023-08-12T08:11:35.963Z,51.55
2023-08-12T08:16:43.055Z,50.45
2023-08-12T08:21:46.680Z,46.54
2023-08-12T08:26:50.505Z,46.92
2023-08-12T08:31:53.491Z,46.70
2023-08-12T08:36:56.735Z,46.72
2023-08-12T08:41:59.893Z,47.37
2023-08-12T08:47:04.407Z,45.63
2023-08-12T08:52:07.888Z,45.35
2023-08-12T08:57:14.347Z,43.72
2023-08-12T09:02:20.804Z,43.11
2023-08-12T09:07:24.025Z,43.15
2023-08-12T09:12:27.138Z,43.72
2023-08-12T09:17:30.565Z,42.29
2023-08-12T09:22:33.559Z,40.63
2023-08-12T09:27:37.962Z,40.13
2023-08-12T09:32:41.313Z,39.90
2023-08-12T09:37:44.278Z,40.23
2023-08-12T09:42:47.797Z,39.91
2023-08-12T09:47:55.437Z,39.34
2023-08-12T09:52:58.632Z,37.80
2023-08-12T09:58:02.799Z,37.27
2023-08-12T10:03:06.677Z,37.46
2023-08-12T10:08:11.079Z,35.90
2023-08-12T10:13:14.040Z,34.98
2023-08-12T10:18:17.172Z,34.39
2023-08-12T10:23:20.113Z,31.18
2023-08-12T10:28:23.268Z,30.94
2023-08-12T10:33:28.307Z,29.31
2023-08-12T10:38:34.801Z,27.86
2023-08-12T10:43:56.569Z,27.22
2023-08-12T10:49:06.893Z,27.94
2023-08-12T10:54:19.474Z,27.08
2023-08-12T10:59:47.423Z,25.39
2023-08-12T11:04:58.275Z,24.60
2023-08-12T11:10:27.798Z,24.03
2023-08-12T11:15:36.204Z,23.21
2023-08-12T11:20:39.614Z,22.29
2023-08-12T11:25:45.218Z,21.54
2023-08-12T11:30:48.201Z,21.30
2023-08-12T11:35:51.432Z,19.38
2023-08-12T11:40:54.332Z,18.74
2023-08-12T11:45:57.650Z,18.17
2023-08-12T11:51:00.595Z,17.57
2023-08-12T11:56:04.637Z,17.59
2023-08-12T12:01:07.570Z,16.99
2023-08-12T12:06:10.518Z,16.29
2023-08-12T12:11:14.882Z,15.64
2023-08-12T12:16:17.810Z,14.80
2023-08-12T12:21:24.243Z,14.25
2023-08-12T12:26:27.560Z,15.96
2023-08-12T12:31:30.621Z,14.58
2023-08-12T12:36:37.465Z,14.16
2023-08-12T12:41:40.555Z,14.39
2023-08-12T12:46:44.830Z,14.49
2023-08-12T12:51:50.529Z,13.76
2023-08-12T12:56:58.085Z,13.45
2023-08-12T13:02:01.860Z,13.52
2023-08-12T13:07:04.934Z,13.11
2023-08-12T13:12:08.354Z,13.09
2023-08-12T13:17:14.375Z,12.97
2023-08-12T13:22:17.585Z,12.95
2023-08-12T13:27:26.101Z,13.29
2023-08-12T13:32:29.563Z,12.47
2023-08-12T13:37:34.944Z,11.93
2023-08-12T13:42:39.791Z,11.18
2023-08-12T13:47:44.230Z,11.23
2023-08-12T13:52:48.437Z,11.13
2023-08-12T13:57:54.565Z,11.15
2023-08-12T14:02:57.822Z,11.20
2023-08-12T14:08:01.504Z,10.71
2023-08-12T14:13:05.411Z,11.12
2023-08-12T14:18:09.448Z,11.26
2023-08-12T14:23:12.512Z,10.96
2023-08-12T14:28:19.047Z,10.75
2023-08-12T14:33:24.395Z,10.68
2023-08-12T14:38:27.315Z,10.26
2023-08-12T14:43:30.189Z,11.56
2023-08-12T14:48:33.267Z,11.92
2023-08-12T14:53:36.836Z,13.31
2023-08-12T14:58:39.760Z,14.93
2023-08-12T15:03:43.072Z,15.73
2023-08-12T15:08:46.223Z,17.68
2023-08-12T15:13:49.288Z,19.12
2023-08-12T15:18:52.204Z,20.65
2023-08-12T15:23:55.180Z,20.97
2023-08-12T15:28:58.036Z,22.00
2023-08-12T15:34:01.064Z,23.03
2023-08-12T15:39:05.282Z,23.97
2023-08-12T15:44:12.393Z,23.98
2023-08-12T15:49:16.018Z,24.70
2023-08-12T15:54:19.503Z,25.06
2023-08-12T15:59:27.399Z,26.94
2023-08-12T16:04:30.770Z,29.05
2023-08-12T16:09:33.783Z,30.18
2023-08-12T16:14:38.530Z,29.36
2023-08-12T16:19:46.382Z,30.37
2023-08-12T16:24:49.810Z,31.92
2023-08-12T16:30:10.092Z,32.72
2023-08-12T16:35:13.728Z,33.77
2023-08-12T16:40:16.769Z,34.92
2023-08-12T16:45:19.819Z,35.60
2023-08-12T16:50:22.747Z,36.30
2023-08-12T16:55:25.690Z,37.29
2023-08-12T17:00:28.797Z,37.65
2023-08-12T17:05:34.864Z,38.80
2023-08-12T17:10:42.374Z,39.73
2023-08-12T17:15:47.332Z,41.34
2023-08-12T17:20:50.487Z,43.09
2023-08-12T17:25:54.470Z,44.45
2023-08-12T17:30:57.831Z,44.95
2023-08-12T17:36:00.837Z,46.72
2023-08-12T17:41:04.007Z,47.79
2023-08-12T17:46:10.856Z,48.90
2023-08-12T17:51:16.172Z,49.82
2023-08-12T17:56:19.518Z,50.92
2023-08-12T18:01:23.220Z,51.73
2023-08-12T18:06:26.328Z,52.51
2023-08-12T18:11:29.344Z,52.81
2023-08-12T18:16:34.624Z,53.38
2023-08-12T18:21:37.881Z,54.39
2023-08-12T18:26:40.867Z,55.35
2023-08-12T18:31:43.813Z,55.67
2023-08-12T18:36:46.738Z,57.06
2023-08-12T18:41:50.443Z,58.08
2023-08-12T18:46:53.308Z,58.50
2023-08-12T18:51:56.314Z,59.25
2023-08-12T18:56:59.137Z,60.23
2023-08-12T19:02:02.027Z,60.76
2023-08-12T19:07:05.524Z,61.39
2023-08-12T19:12:10.632Z,61.80
2023-08-12T19:17:13.934Z,62.02
2023-08-12T19:22:16.860Z,62.45
2023-08-12T19:27:19.880Z,63.33
2023-08-12T19:32:22.853Z,63.99
2023-08-12T19:37:26.432Z,64.05
2023-08-12T19:42:29.794Z,64.38
2023-08-12T19:47:40.732Z,64.65
2023-08-12T19:52:44.285Z,64.82
2023-08-12T19:57:49.471Z,65.85
2023-08-12T20:02:53.845Z,66.41
2023-08-12T20:07:58.254Z,67.72
2023-08-12T20:13:03.632Z,68.35
2023-08-12T20:18:06.754Z,69.20
2023-08-12T20:23:12.025Z,70.56
2023-08-12T20:28:20.014Z,71.18
2023-08-12T20:33:23.502Z,72.09
2023-08-12T20:38:26.636Z,72.88
2023-08-12T20:43:29.515Z,73.41
2023-08-12T20:48:33.208Z,73.73
2023-08-12T20:53:36.036Z,74.12
2023-08-12T20:58:38.873Z,74.29
2023-08-12T21:03:41.932Z,74.77
2023-08-12T21:08:45.027Z,75.11
2023-08-12T21:13:47.945Z,75.41
2023-08-12T21:18:50.789Z,75.17
2023-08-12T21:23:53.698Z,75.38
2023-08-12T21:28:56.592Z,75.33
2023-08-12T21:33:59.557Z,75.51
2023-08-12T21:39:05.406Z,75.44
2023-08-12T21:44:08.374Z,75.71
2023-08-12T21:49:11.513Z,76.47
2023-08-12T21:54:14.668Z,76.39
2023-08-12T21:59:18.132Z,76.98
2023-08-12T22:04:21.158Z,77.29
2023-08-12T22:09:30.300Z,77.51
2023-08-12T22:14:33.708Z,78.08
2023-08-12T22:19:36.688Z,78.47
2023-08-12T22:24:39.890Z,78.92
2023-08-12T22:29:42.850Z,79.10
2023-08-12T22:34:45.840Z,79.42
2023-08-12T22:39:48.742Z,79.66
2023-08-12T22:44:51.665Z,80.20
2023-08-12T22:49:54.851Z,80.21
2023-08-12T22:54:58.924Z,80.33
2023-08-12T23:00:01.965Z,81.16
2023-08-12T23:05:05.396Z,81.51
2023-08-12T23:10:09.753Z,81.81
2023-08-12T23:15:12.777Z,82.23
2023-08-12T23:20:15.703Z,82.24
2023-08-12T23:25:18.849Z,82.43
2023-08-12T23:30:22.190Z,82.64
2023-08-12T23:35:25.168Z,82.54
2023-08-12T23:40:28.282Z,82.71
2023-08-12T23:45:31.495Z,82.90
2023-08-12T23:50:34.504Z,83.14
2023-08-12T23:55:37.462Z,83.32
